createdAt,value
2017-05-28T00:00:37.757Z,4.60
2017-05-28T00:03:04.758Z,3.68
2017-05-28T00:05:33.005Z,5.30
2017-05-28T00:08:00.005Z,4.54
2017-05-28T00:10:26.261Z,4.22
2017-05-28T00:12:53.613Z,4.38
2017-05-28T00:15:20.618Z,4.18
2017-05-28T00:17:46.877Z,4.50
2017-05-28T00:20:14.985Z,4.52
2017-05-28T00:22:41.989Z,6.86
2017-05-28T00:25:09.858Z,5.38
2017-05-28T00:27:37.837Z,5.32
2017-05-28T00:30:04.841Z,5.04
2017-05-28T00:32:31.875Z,5.18
2017-05-28T00:34:59.192Z,5.10
2017-05-28T00:37:26.187Z,5.70
2017-05-28T00:39:53.187Z,5.28
2017-05-28T00:42:20.543Z,5.80
2017-05-28T00:44:48.349Z,7.06
2017-05-28T00:47:15.350Z,8.52
2017-05-28T00:49:42.700Z,5.20
2017-05-28T00:52:09.689Z,4.88
2017-05-28T00:54:36.694Z,6.20
2017-05-28T00:57:04.042Z,5.20
2017-05-28T00:59:31.041Z,4.94
2017-05-28T01:01:58.602Z,5.86
2017-05-28T01:04:26.004Z,5.58
2017-05-28T01:06:53.038Z,5.16
2017-05-28T01:09:20.041Z,5.62
2017-05-28T01:11:48.277Z,5.74
2017-05-28T01:14:16.081Z,6.04
2017-05-28T01:16:43.826Z,5.86
2017-05-28T01:19:13.031Z,6.66
2017-05-28T01:21:40.050Z,5.18
2017-05-28T01:24:07.473Z,5.86
2017-05-28T01:26:34.845Z,8.10
2017-05-28T01:29:01.849Z,6.04
2017-05-28T01:31:28.861Z,6.34
2017-05-28T01:33:56.297Z,6.64
2017-05-28T01:36:23.326Z,6.46
2017-05-28T01:38:50.333Z,6.42
2017-05-28T01:41:17.747Z,6.60
2017-05-28T01:43:44.809Z,6.44
2017-05-28T01:46:11.843Z,6.70
2017-05-28T01:48:40.049Z,6.48
2017-05-28T01:51:07.918Z,7.30
2017-05-28T01:53:34.927Z,6.60
2017-05-28T01:56:02.286Z,7.34
2017-05-28T01:58:31.095Z,6.82
2017-05-28T02:00:58.106Z,6.76
2017-05-28T02:03:25.469Z,6.46
2017-05-28T02:05:53.002Z,7.88
2017-05-28T02:08:20.652Z,7.20
2017-05-28T02:10:47.701Z,6.46
2017-05-28T02:13:17.585Z,7.90
2017-05-28T02:15:44.586Z,6.24
2017-05-28T02:18:12.780Z,6.40
2017-05-28T02:20:40.441Z,6.74
2017-05-28T02:23:07.432Z,6.32
2017-05-28T02:25:34.726Z,6.32
2017-05-28T02:28:02.292Z,6.42
2017-05-28T02:30:29.289Z,6.14
2017-05-28T02:32:56.685Z,7.42
2017-05-28T02:35:23.681Z,6.10
2017-05-28T02:37:50.669Z,8.06
2017-05-28T02:40:18.033Z,7.58
2017-05-28T02:42:45.053Z,9.26
2017-05-28T02:45:12.058Z,8.00
2017-05-28T02:47:40.307Z,8.34
2017-05-28T02:50:07.318Z,8.02
2017-05-28T02:52:34.843Z,7.08
2017-05-28T02:55:02.158Z,9.74
2017-05-28T02:57:29.153Z,7.78
2017-05-28T02:59:56.155Z,7.52
2017-05-28T03:02:24.526Z,7.06
2017-05-28T03:04:55.382Z,6.30
2017-05-28T03:07:23.042Z,7.36
2017-05-28T03:09:51.113Z,7.74
2017-05-28T03:12:18.114Z,9.34
2017-05-28T03:14:45.993Z,8.44
2017-05-28T03:17:13.361Z,7.92
2017-05-28T03:19:40.365Z,7.98
2017-05-28T03:22:08.362Z,7.56
2017-05-28T03:24:35.735Z,6.32
2017-05-28T03:27:02.818Z,7.22
2017-05-28T03:29:29.817Z,7.50
2017-05-28T03:31:57.966Z,9.50
2017-05-28T03:34:24.965Z,8.20
2017-05-28T03:36:51.965Z,8.68
2017-05-28T03:39:19.341Z,8.10
2017-05-28T03:41:46.334Z,9.26
2017-05-28T03:44:13.342Z,9.04
2017-05-28T03:46:40.689Z,8.20
2017-05-28T03:49:08.717Z,7.44
2017-05-28T03:51:35.722Z,8.22
2017-05-28T03:54:03.058Z,8.56
2017-05-28T03:56:31.093Z,8.68
2017-05-28T03:58:58.114Z,7.68
2017-05-28T04:01:25.425Z,7.34
2017-05-28T04:03:52.421Z,9.24
2017-05-28T04:06:19.441Z,8.28
2017-05-28T04:08:47.666Z,8.10
2017-05-28T04:11:14.671Z,6.62
2017-05-28T04:13:41.671Z,7.92
2017-05-28T04:16:08.997Z,7.12
2017-05-28T04:18:35.993Z,8.18
2017-05-28T04:21:02.998Z,8.04
2017-05-28T04:23:31.246Z,7.54
2017-05-28T04:25:58.241Z,8.14
2017-05-28T04:28:25.250Z,8.02
2017-05-28T04:30:53.375Z,6.90
2017-05-28T04:33:20.386Z,6.76
2017-05-28T04:35:47.481Z,6.90
2017-05-28T04:38:15.595Z,5.84
2017-05-28T04:40:42.602Z,6.88
2017-05-28T04:43:09.603Z,6.40
2017-05-28T04:45:37.720Z,6.50
2017-05-28T04:48:04.726Z,7.48
2017-05-28T04:50:31.742Z,5.68
2017-05-28T04:52:59.055Z,5.48
2017-05-28T04:55:26.046Z,5.38
2017-05-28T04:57:53.051Z,6.94
2017-05-28T05:00:21.322Z,5.62
2017-05-28T05:02:48.318Z,8.16
2017-05-28T05:05:15.326Z,6.00
2017-05-28T05:07:42.657Z,6.20
2017-05-28T05:10:09.657Z,6.78
2017-05-28T05:12:36.655Z,6.90
2017-05-28T05:15:03.997Z,5.42
2017-05-28T05:17:30.994Z,6.44
2017-05-28T05:19:57.982Z,6.12
2017-05-28T05:22:26.230Z,6.18
2017-05-28T05:24:53.224Z,6.00
2017-05-28T05:27:20.218Z,6.80
2017-05-28T05:29:47.613Z,6.68
2017-05-28T05:32:14.641Z,6.52
2017-05-28T05:34:41.665Z,17.96
2017-05-28T05:37:09.073Z,6.60
2017-05-28T05:39:36.557Z,7.10
2017-05-28T05:42:03.563Z,7.68
2017-05-28T05:44:31.606Z,6.94
2017-05-28T05:46:58.601Z,7.08
2017-05-28T05:49:25.615Z,6.78
2017-05-28T05:51:53.859Z,9.54
2017-05-28T05:54:21.909Z,7.48
2017-05-28T05:56:48.910Z,6.78
2017-05-28T05:59:17.106Z,8.70
2017-05-28T06:01:44.109Z,7.34
2017-05-28T06:04:11.129Z,9.24
2017-05-28T06:06:38.439Z,5.84
2017-05-28T06:09:05.433Z,6.22
2017-05-28T06:11:32.424Z,5.78
2017-05-28T06:13:59.710Z,5.80
2017-05-28T06:16:26.715Z,7.62
2017-05-28T06:18:53.713Z,5.00
2017-05-28T06:21:21.022Z,5.80
2017-05-28T06:23:48.048Z,6.14
2017-05-28T06:26:15.069Z,4.24
2017-05-28T06:28:43.317Z,5.64
2017-05-28T06:31:10.317Z,4.88
2017-05-28T06:33:37.315Z,5.46
2017-05-28T06:36:05.375Z,5.06
2017-05-28T06:38:32.385Z,5.24
2017-05-28T06:40:59.378Z,4.72
2017-05-28T06:43:27.646Z,5.22
2017-05-28T06:45:54.642Z,4.42
2017-05-28T06:48:21.657Z,4.74
2017-05-28T06:50:49.798Z,4.34
2017-05-28T06:53:16.787Z,4.18
2017-05-28T06:55:43.790Z,5.44
2017-05-28T06:58:12.089Z,4.94
2017-05-28T07:00:39.106Z,5.70
2017-05-28T07:03:06.105Z,4.22
2017-05-28T07:05:34.254Z,4.92
2017-05-28T07:08:01.259Z,5.80
2017-05-28T07:10:29.279Z,4.10
2017-05-28T07:12:56.578Z,4.18
2017-05-28T07:15:23.586Z,4.36
2017-05-28T07:17:50.588Z,4.74
2017-05-28T07:20:17.849Z,4.74
2017-05-28T07:22:44.841Z,4.30
2017-05-28T07:25:11.837Z,4.06
2017-05-28T07:27:39.286Z,3.28
2017-05-28T07:30:06.297Z,3.82
2017-05-28T07:32:33.393Z,3.72
2017-05-28T07:35:00.697Z,5.10
2017-05-28T07:37:27.711Z,4.96
2017-05-28T07:39:54.721Z,4.54
2017-05-28T07:42:22.932Z,4.28
2017-05-28T07:44:49.946Z,4.28
2017-05-28T07:47:16.936Z,3.90
2017-05-28T07:49:44.242Z,4.30
2017-05-28T07:52:11.267Z,4.08
2017-05-28T07:54:38.277Z,3.72
2017-05-28T07:57:05.578Z,4.10
2017-05-28T07:59:32.583Z,3.84
2017-05-28T08:01:59.594Z,4.24
2017-05-28T08:04:26.930Z,3.92
2017-05-28T08:06:53.941Z,4.14
2017-05-28T08:09:20.940Z,3.80
2017-05-28T08:11:48.265Z,3.92
2017-05-28T08:14:15.267Z,3.52
2017-05-28T08:16:42.277Z,4.16
2017-05-28T08:19:09.614Z,3.60
2017-05-28T08:21:36.609Z,3.80
2017-05-28T08:24:03.606Z,4.04
2017-05-28T08:26:30.974Z,3.98
2017-05-28T08:28:57.982Z,3.72
2017-05-28T08:31:24.993Z,3.94
2017-05-28T08:33:52.307Z,4.42
2017-05-28T08:36:19.327Z,3.22
2017-05-28T08:38:46.326Z,4.28
2017-05-28T08:41:13.653Z,4.94
2017-05-28T08:43:40.670Z,3.74
2017-05-28T08:46:07.681Z,3.40
2017-05-28T08:48:35.841Z,4.24
2017-05-28T08:51:02.846Z,3.52
2017-05-28T08:53:29.851Z,3.72
2017-05-28T08:55:58.061Z,3.74
2017-05-28T08:58:25.063Z,3.36
2017-05-28T09:00:52.078Z,3.36
2017-05-28T09:03:20.293Z,3.74
2017-05-28T09:05:48.309Z,2.98
2017-05-28T09:08:15.910Z,3.10
2017-05-28T09:10:58.381Z,4.26
2017-05-28T09:13:25.590Z,4.18
2017-05-28T09:15:52.001Z,3.32
2017-05-28T09:18:19.469Z,3.14
2017-05-28T09:20:46.647Z,3.20
2017-05-28T09:23:14.925Z,3.34
2017-05-28T09:25:42.461Z,5.12
2017-05-28T09:28:09.560Z,3.50
2017-05-28T09:30:36.601Z,3.26
2017-05-28T09:33:03.954Z,3.52
2017-05-28T09:35:30.958Z,4.30
2017-05-28T09:37:57.957Z,3.02
2017-05-28T09:40:25.302Z,3.30
2017-05-28T09:42:52.302Z,3.82
2017-05-28T09:45:19.309Z,3.92
2017-05-28T09:47:46.650Z,3.56
2017-05-28T09:50:13.637Z,2.60
2017-05-28T09:52:40.636Z,3.34
2017-05-28T09:55:08.970Z,3.58
2017-05-28T09:57:36.986Z,3.98
2017-05-28T10:00:03.986Z,3.12
2017-05-28T10:02:31.282Z,3.10
2017-05-28T10:04:58.283Z,4.16
2017-05-28T10:07:25.283Z,3.76
2017-05-28T10:09:52.594Z,3.32
2017-05-28T10:12:19.595Z,3.78
2017-05-28T10:14:46.594Z,3.54
2017-05-28T10:17:13.968Z,3.66
2017-05-28T10:19:41.100Z,3.40
2017-05-28T10:22:09.113Z,3.56
2017-05-28T10:24:37.384Z,4.12
2017-05-28T10:27:04.381Z,3.58
2017-05-28T10:29:31.385Z,3.86
2017-05-28T10:31:58.714Z,3.04
2017-05-28T10:34:25.779Z,3.20
2017-05-28T10:36:52.798Z,3.14
2017-05-28T10:39:20.897Z,3.08
2017-05-28T10:41:48.040Z,3.14
2017-05-28T10:44:15.071Z,6.56
2017-05-28T10:46:42.424Z,3.40
2017-05-28T10:49:09.423Z,6.30
2017-05-28T10:51:36.418Z,3.96
2017-05-28T10:54:03.775Z,3.28
2017-05-28T10:56:30.769Z,2.80
2017-05-28T10:58:57.778Z,3.70
2017-05-28T11:01:25.128Z,3.18
2017-05-28T11:03:52.130Z,3.00
2017-05-28T11:06:19.130Z,2.82
2017-05-28T11:08:46.458Z,2.88
2017-05-28T11:11:13.461Z,2.72
2017-05-28T11:13:40.602Z,4.86
2017-05-28T11:16:08.667Z,3.02
2017-05-28T11:18:36.669Z,3.02
2017-05-28T11:21:04.510Z,2.80
2017-05-28T11:23:31.817Z,2.70
2017-05-28T11:25:58.827Z,2.70
2017-05-28T11:28:25.829Z,2.88
2017-05-28T11:30:53.118Z,3.08
2017-05-28T11:33:20.121Z,3.06
2017-05-28T11:35:47.133Z,2.82
2017-05-28T11:38:14.425Z,2.92
2017-05-28T11:40:41.426Z,2.80
2017-05-28T11:43:09.433Z,3.84
2017-05-28T11:45:36.725Z,2.90
2017-05-28T11:48:03.742Z,3.84
2017-05-28T11:50:30.746Z,3.12
2017-05-28T11:52:58.118Z,3.32
2017-05-28T11:55:25.134Z,2.60
2017-05-28T11:57:52.135Z,2.48
2017-05-28T12:00:19.465Z,3.04
2017-05-28T12:02:46.473Z,3.52
2017-05-28T12:05:13.470Z,3.42
2017-05-28T12:07:40.817Z,2.70
2017-05-28T12:10:07.831Z,2.98
2017-05-28T12:12:34.822Z,3.08
2017-05-28T12:15:02.142Z,2.66
2017-05-28T12:17:29.153Z,3.94
2017-05-28T12:19:56.164Z,3.30
2017-05-28T12:22:23.467Z,3.34
2017-05-28T12:24:50.461Z,3.34
2017-05-28T12:27:17.466Z,1.68
2017-05-28T12:29:44.794Z,2.62
2017-05-28T12:32:11.798Z,2.04
2017-05-28T12:34:38.798Z,2.30
2017-05-28T12:37:06.954Z,2.48
2017-05-28T12:39:33.954Z,2.30
2017-05-28T12:42:00.951Z,2.46
2017-05-28T12:44:28.305Z,1.82
2017-05-28T12:46:55.312Z,1.50
2017-05-28T12:49:22.321Z,2.74
2017-05-28T12:51:49.613Z,2.26
2017-05-28T12:54:16.613Z,1.80
2017-05-28T12:56:43.616Z,1.82
2017-05-28T12:59:10.905Z,2.56
2017-05-28T13:01:37.930Z,2.60
2017-05-28T13:04:04.954Z,2.12
2017-05-28T13:06:33.189Z,1.78
2017-05-28T13:09:00.194Z,2.04
2017-05-28T13:11:27.197Z,1.66
2017-05-28T13:13:55.393Z,1.44
2017-05-28T13:16:22.397Z,2.16
2017-05-28T13:18:50.445Z,1.34
2017-05-28T13:21:17.732Z,1.50
2017-05-28T13:23:44.765Z,1.66
2017-05-28T13:26:11.769Z,1.80
2017-05-28T13:28:39.093Z,1.62
2017-05-28T13:31:06.097Z,1.62
2017-05-28T13:33:33.097Z,1.50
2017-05-28T13:36:01.467Z,1.90
2017-05-28T13:38:28.475Z,1.62
2017-05-28T13:40:55.473Z,1.60
2017-05-28T13:43:22.805Z,1.68
2017-05-28T13:45:49.810Z,1.48
2017-05-28T13:48:16.818Z,2.26
2017-05-28T13:50:45.186Z,1.94
2017-05-28T13:53:13.226Z,1.70
2017-05-28T13:55:40.224Z,2.00
2017-05-28T13:58:08.669Z,1.58
2017-05-28T14:00:35.684Z,1.72
2017-05-28T14:03:02.700Z,2.16
2017-05-28T14:05:30.020Z,1.92
2017-05-28T14:07:58.049Z,1.96
2017-05-28T14:10:25.059Z,2.04
2017-05-28T14:12:52.392Z,1.54
2017-05-28T14:15:19.398Z,1.70
2017-05-28T14:17:45.649Z,1.60
2017-05-28T14:20:13.649Z,1.80
2017-05-28T14:22:40.654Z,1.80
2017-05-28T14:25:07.658Z,1.30
2017-05-28T14:27:34.974Z,2.06
2017-05-28T14:30:01.982Z,1.90
2017-05-28T14:32:28.985Z,2.50
2017-05-28T14:34:56.318Z,1.80
2017-05-28T14:37:23.342Z,1.74
2017-05-28T14:39:50.362Z,1.20
2017-05-28T14:42:17.706Z,1.40
2017-05-28T14:44:44.705Z,1.48
2017-05-28T14:47:11.745Z,1.64
2017-05-28T14:49:39.801Z,1.60
2017-05-28T14:52:06.065Z,1.62
2017-05-28T14:54:34.110Z,1.86
2017-05-28T14:57:01.485Z,2.10
2017-05-28T14:59:28.497Z,1.84
2017-05-28T15:01:55.493Z,2.06
2017-05-28T15:04:22.833Z,1.82
2017-05-28T15:06:49.837Z,1.52
2017-05-28T15:09:16.839Z,1.96
2017-05-28T15:11:45.051Z,1.76
2017-05-28T15:14:11.322Z,1.56
2017-05-28T15:16:38.325Z,1.86
2017-05-28T15:19:05.626Z,1.54
2017-05-28T15:21:33.651Z,1.52
2017-05-28T15:24:00.661Z,1.88
2017-05-28T15:26:27.990Z,1.68
2017-05-28T15:28:55.044Z,2.40
2017-05-28T15:31:23.102Z,1.72
2017-05-28T15:33:51.262Z,1.80
2017-05-28T15:36:18.268Z,2.08
2017-05-28T15:38:45.276Z,2.34
2017-05-28T15:41:12.627Z,1.76
2017-05-28T15:43:39.629Z,1.70
2017-05-28T15:46:06.645Z,1.82
2017-05-28T15:48:33.965Z,3.32
2017-05-28T15:51:01.023Z,2.08
2017-05-28T15:53:28.026Z,1.80
2017-05-28T15:55:55.309Z,2.54
2017-05-28T15:58:22.318Z,1.70
2017-05-28T16:00:49.326Z,1.88
2017-05-28T16:03:17.454Z,1.66
2017-05-28T16:05:43.726Z,2.06
2017-05-28T16:08:10.729Z,1.82
2017-05-28T16:10:38.133Z,1.82
2017-05-28T16:13:05.127Z,1.86
2017-05-28T16:15:32.133Z,2.44
2017-05-28T16:18:00.478Z,1.76
2017-05-28T16:20:28.520Z,1.94
2017-05-28T16:22:55.525Z,2.18
2017-05-28T16:25:22.849Z,1.88
2017-05-28T16:27:50.889Z,1.94
2017-05-28T16:30:17.902Z,1.68
2017-05-28T16:32:45.198Z,3.74
2017-05-28T16:35:12.202Z,2.08
2017-05-28T16:37:39.217Z,2.14
2017-05-28T16:40:06.567Z,1.62
2017-05-28T16:42:33.573Z,5.62
2017-05-28T16:45:00.589Z,2.90
2017-05-28T16:47:27.909Z,1.68
2017-05-28T16:49:54.909Z,5.42
2017-05-28T16:52:21.918Z,1.80
2017-05-28T16:54:49.266Z,2.44
2017-05-28T16:57:16.274Z,1.52
2017-05-28T16:59:43.298Z,1.60
2017-05-28T17:02:11.430Z,2.14
2017-05-28T17:04:38.441Z,4.12
2017-05-28T17:07:05.443Z,2.70
2017-05-28T17:09:33.485Z,2.12
2017-05-28T17:12:00.494Z,1.70
2017-05-28T17:14:27.493Z,7.82
2017-05-28T17:16:54.834Z,4.98
2017-05-28T17:19:21.845Z,1.70
2017-05-28T17:21:49.861Z,2.24
2017-05-28T17:24:17.322Z,2.00
2017-05-28T17:26:43.589Z,1.96
2017-05-28T17:29:10.619Z,2.58
2017-05-28T17:31:38.083Z,2.20
2017-05-28T17:34:05.090Z,1.90
2017-05-28T17:36:31.370Z,2.46
2017-05-28T17:38:58.766Z,2.44
2017-05-28T17:41:25.769Z,1.90
2017-05-28T17:43:52.771Z,3.00
2017-05-28T17:46:19.381Z,2.42
2017-05-28T17:48:46.386Z,2.12
2017-05-28T17:51:13.385Z,2.66
2017-05-28T17:53:40.003Z,2.12
2017-05-28T17:56:06.266Z,2.24
2017-05-28T17:58:33.273Z,2.18
2017-05-28T18:01:00.554Z,3.96
2017-05-28T18:03:27.549Z,1.90
2017-05-28T18:05:54.554Z,2.00
2017-05-28T18:08:21.890Z,2.30
2017-05-28T18:10:48.889Z,2.32
2017-05-28T18:13:15.150Z,3.62
2017-05-28T18:15:43.453Z,2.34
2017-05-28T18:18:10.465Z,2.60
2017-05-28T18:20:37.458Z,2.82
2017-05-28T18:23:04.774Z,2.80
2017-05-28T18:25:31.781Z,2.44
2017-05-28T18:27:58.809Z,3.96
2017-05-28T18:30:26.141Z,1.96
2017-05-28T18:32:53.147Z,3.16
2017-05-28T18:35:21.149Z,2.66
2017-05-28T18:37:49.290Z,3.08
2017-05-28T18:40:16.310Z,2.16
2017-05-28T18:42:43.318Z,2.76
2017-05-28T18:45:10.635Z,2.40
2017-05-28T18:47:37.642Z,2.46
2017-05-28T18:50:03.905Z,2.74
2017-05-28T18:52:31.297Z,2.10
2017-05-28T18:54:58.315Z,3.00
2017-05-28T18:57:25.323Z,2.30
2017-05-28T18:59:52.789Z,2.20
2017-05-28T19:02:19.905Z,2.74
2017-05-28T19:04:46.237Z,2.20
2017-05-28T19:07:14.357Z,2.32
2017-05-28T19:09:41.387Z,3.10
2017-05-28T19:12:08.450Z,2.56
2017-05-28T19:14:35.727Z,3.00
2017-05-28T19:17:03.054Z,2.64
2017-05-28T19:19:30.094Z,2.58
2017-05-28T19:21:57.391Z,3.68
2017-05-28T19:24:24.394Z,4.92
2017-05-28T19:26:51.400Z,4.28
2017-05-28T19:29:18.678Z,2.58
2017-05-28T19:31:45.689Z,3.48
2017-05-28T19:34:14.016Z,2.46
2017-05-28T19:36:41.421Z,2.10
2017-05-28T19:41:45.838Z,2.80
2017-05-28T19:44:12.857Z,2.78
2017-05-28T19:46:39.981Z,2.42
2017-05-28T19:49:07.397Z,2.26
2017-05-28T19:51:35.273Z,2.96
2017-05-28T19:54:02.351Z,2.48
2017-05-28T19:56:29.777Z,2.40
2017-05-28T19:58:56.773Z,2.60
2017-05-28T20:01:23.778Z,2.70
2017-05-28T20:03:52.145Z,2.40
2017-05-28T20:06:19.321Z,2.94
2017-05-28T20:08:46.326Z,2.56
2017-05-28T20:11:14.557Z,3.12
2017-05-28T20:13:41.810Z,2.46
2017-05-28T20:16:09.873Z,2.90
2017-05-28T20:18:37.924Z,2.76
2017-05-28T20:21:04.937Z,2.58
2017-05-28T20:23:31.950Z,2.36
2017-05-28T20:26:00.173Z,3.60
2017-05-28T20:28:27.426Z,3.70
2017-05-28T20:30:55.475Z,2.58
2017-05-28T20:33:22.030Z,2.68
2017-05-28T20:35:49.026Z,4.12
2017-05-28T20:38:16.038Z,2.88
2017-05-28T20:40:44.317Z,2.52
2017-05-28T20:43:11.317Z,2.74
2017-05-28T20:45:38.325Z,6.28
2017-05-28T20:48:05.638Z,3.04
2017-05-28T20:50:33.662Z,3.18
2017-05-28T20:53:00.654Z,2.70
2017-05-28T20:55:28.003Z,2.38
2017-05-28T20:57:55.026Z,2.70
2017-05-28T21:00:23.041Z,4.96
2017-05-28T21:02:51.106Z,4.02
2017-05-28T21:05:18.102Z,2.74
2017-05-28T21:07:45.118Z,2.80
2017-05-28T21:10:13.327Z,2.22
2017-05-28T21:12:40.329Z,3.80
2017-05-28T21:15:08.338Z,3.58
2017-05-28T21:17:36.453Z,2.72
2017-05-28T21:20:03.464Z,3.56
2017-05-28T21:22:30.453Z,3.00
2017-05-28T21:24:57.789Z,2.82
2017-05-28T21:27:24.059Z,2.46
2017-05-28T21:29:51.058Z,2.60
2017-05-28T21:32:18.418Z,2.66
2017-05-28T21:34:45.417Z,2.30
2017-05-28T21:37:12.421Z,2.90
2017-05-28T21:39:39.766Z,3.00
2017-05-28T21:42:06.769Z,2.86
2017-05-28T21:44:33.777Z,3.10
2017-05-28T21:47:01.535Z,2.86
2017-05-28T21:49:28.585Z,2.50
2017-05-28T21:51:55.602Z,2.80
2017-05-28T21:54:22.969Z,3.10
2017-05-28T21:56:49.978Z,2.90
2017-05-28T21:59:16.987Z,2.66
2017-05-28T22:01:44.313Z,2.20
2017-05-28T22:04:11.322Z,2.80
2017-05-28T22:06:38.331Z,2.56
2017-05-28T22:09:05.658Z,3.86
2017-05-28T22:11:32.661Z,3.20
2017-05-28T22:13:59.661Z,3.10
2017-05-28T22:16:27.861Z,2.92
2017-05-28T22:18:54.882Z,5.90
2017-05-28T22:21:21.888Z,3.46
2017-05-28T22:23:50.090Z,3.12
2017-05-28T22:26:17.098Z,3.46
2017-05-28T22:28:44.104Z,3.68
2017-05-28T22:31:12.294Z,3.28
2017-05-28T22:33:39.289Z,7.46
2017-05-28T22:36:06.289Z,3.90
2017-05-28T22:38:33.709Z,2.98
2017-05-28T22:41:00.705Z,3.52
2017-05-28T22:43:27.717Z,3.60
2017-05-28T22:45:56.069Z,3.44
2017-05-28T22:48:23.075Z,3.86
2017-05-28T22:50:50.073Z,4.66
2017-05-28T22:53:17.410Z,3.82
2017-05-28T22:55:44.413Z,3.88
2017-05-28T22:58:11.414Z,3.68
2017-05-28T23:00:39.550Z,2.90
2017-05-28T23:03:06.558Z,3.62
2017-05-28T23:05:33.557Z,5.36
2017-05-28T23:08:00.926Z,3.18
2017-05-28T23:10:27.930Z,4.64
2017-05-28T23:12:54.929Z,3.28
2017-05-28T23:15:22.289Z,3.42
2017-05-28T23:17:49.326Z,3.60
2017-05-28T23:20:16.333Z,4.84
2017-05-28T23:22:43.683Z,3.02
2017-05-28T23:25:10.681Z,3.38
2017-05-28T23:27:37.685Z,4.08
2017-05-28T23:30:04.246Z,3.64
2017-05-28T23:32:31.248Z,3.70
2017-05-28T23:34:57.572Z,4.26
2017-05-28T23:37:25.706Z,4.32
2017-05-28T23:39:52.713Z,4.36
2017-05-28T23:42:20.742Z,3.52
2017-05-28T23:44:48.174Z,3.34
2017-05-28T23:47:15.177Z,4.26
2017-05-28T23:49:41.891Z,3.44
2017-05-28T23:52:10.129Z,3.14
2017-05-28T23:54:37.127Z,3.68
2017-05-28T23:57:04.121Z,4.50
2017-05-28T23:59:31.469Z,3.50
